sensor_id;sensor_type;location;lat;lon;timestamp;P1;durP1;ratioP1;P2;durP2;ratioP2
505;SDS011;551;48.524;9.056;2024-03-08T00:00:33;29.17;;;16.20;;
505;SDS011;551;48.524;9.056;2024-03-08T00:02:59;27.30;;;16.67;;
505;SDS011;551;48.524;9.056;2024-03-08T00:05:27;29.40;;;17.20;;
505;SDS011;551;48.524;9.056;2024-03-08T00:07:52;29.53;;;15.50;;
505;SDS011;551;48.524;9.056;2024-03-08T00:10:18;29.37;;;15.27;;
505;SDS011;551;48.524;9.056;2024-03-08T00:12:45;24.83;;;14.50;;
505;SDS011;551;48.524;9.056;2024-03-08T00:15:12;29.30;;;16.40;;
505;SDS011;551;48.524;9.056;2024-03-08T00:17:39;26.60;;;15.77;;
505;SDS011;551;48.524;9.056;2024-03-08T00:20:05;31.90;;;16.30;;
505;SDS011;551;48.524;9.056;2024-03-08T00:22:34;28.20;;;15.40;;
505;SDS011;551;48.524;9.056;2024-03-08T00:25:01;26.03;;;16.03;;
505;SDS011;551;48.524;9.056;2024-03-08T00:27:27;29.00;;;16.40;;
505;SDS011;551;48.524;9.056;2024-03-08T00:29:59;25.73;;;15.90;;
505;SDS011;551;48.524;9.056;2024-03-08T00:32:25;29.10;;;15.33;;
505;SDS011;551;48.524;9.056;2024-03-08T00:34:52;23.07;;;14.83;;
505;SDS011;551;48.524;9.056;2024-03-08T00:37:19;29.53;;;15.93;;
505;SDS011;551;48.524;9.056;2024-03-08T00:39:46;30.87;;;16.53;;
505;SDS011;551;48.524;9.056;2024-03-08T00:42:15;31.47;;;16.50;;
505;SDS011;551;48.524;9.056;2024-03-08T00:44:41;33.13;;;15.87;;
505;SDS011;551;48.524;9.056;2024-03-08T00:47:07;27.43;;;17.13;;
505;SDS011;551;48.524;9.056;2024-03-08T00:49:32;30.37;;;16.80;;
505;SDS011;551;48.524;9.056;2024-03-08T00:51:58;35.70;;;17.30;;
505;SDS011;551;48.524;9.056;2024-03-08T00:54:23;28.67;;;16.77;;
505;SDS011;551;48.524;9.056;2024-03-08T00:56:49;26.17;;;16.03;;
505;SDS011;551;48.524;9.056;2024-03-08T00:59:15;32.50;;;16.37;;
505;SDS011;551;48.524;9.056;2024-03-08T01:01:41;23.30;;;15.60;;
505;SDS011;551;48.524;9.056;2024-03-08T01:04:06;37.30;;;16.90;;
505;SDS011;551;48.524;9.056;2024-03-08T01:06:33;28.27;;;16.70;;
505;SDS011;551;48.524;9.056;2024-03-08T01:08:59;32.87;;;17.47;;
505;SDS011;551;48.524;9.056;2024-03-08T01:11:24;32.63;;;16.50;;
505;SDS011;551;48.524;9.056;2024-03-08T01:13:50;32.47;;;17.33;;
505;SDS011;551;48.524;9.056;2024-03-08T01:16:16;31.07;;;15.80;;
505;SDS011;551;48.524;9.056;2024-03-08T01:18:46;26.37;;;15.23;;
505;SDS011;551;48.524;9.056;2024-03-08T01:21:12;32.57;;;16.70;;
505;SDS011;551;48.524;9.056;2024-03-08T01:23:38;32.93;;;18.23;;
505;SDS011;551;48.524;9.056;2024-03-08T01:26:04;28.73;;;17.30;;
505;SDS011;551;48.524;9.056;2024-03-08T01:28:29;30.57;;;17.40;;
505;SDS011;551;48.524;9.056;2024-03-08T01:30:55;31.30;;;16.67;;
505;SDS011;551;48.524;9.056;2024-03-08T01:33:24;31.93;;;16.60;;
505;SDS011;551;48.524;9.056;2024-03-08T01:35:51;32.57;;;18.37;;
505;SDS011;551;48.524;9.056;2024-03-08T01:38:18;32.33;;;16.73;;
505;SDS011;551;48.524;9.056;2024-03-08T01:40:44;35.80;;;17.00;;
505;SDS011;551;48.524;9.056;2024-03-08T01:43:19;29.07;;;16.10;;
505;SDS011;551;48.524;9.056;2024-03-08T01:45:46;30.83;;;15.57;;
505;SDS011;551;48.524;9.056;2024-03-08T01:48:12;28.27;;;15.53;;
505;SDS011;551;48.524;9.056;2024-03-08T01:50:39;29.40;;;15.37;;
505;SDS011;551;48.524;9.056;2024-03-08T01:53:05;31.97;;;16.83;;
505;SDS011;551;48.524;9.056;2024-03-08T01:55:32;28.80;;;15.67;;
505;SDS011;551;48.524;9.056;2024-03-08T01:58:00;27.70;;;14.87;;
505;SDS011;551;48.524;9.056;2024-03-08T02:00:27;32.47;;;16.60;;
505;SDS011;551;48.524;9.056;2024-03-08T02:02:54;29.10;;;16.90;;
505;SDS011;551;48.524;9.056;2024-03-08T02:05:22;29.93;;;17.37;;
505;SDS011;551;48.524;9.056;2024-03-08T02:07:48;30.77;;;16.80;;
505;SDS011;551;48.524;9.056;2024-03-08T02:10:14;31.17;;;16.50;;
505;SDS011;551;48.524;9.056;2024-03-08T02:12:39;33.80;;;16.80;;
505;SDS011;551;48.524;9.056;2024-03-08T02:15:05;31.77;;;17.27;;
505;SDS011;551;48.524;9.056;2024-03-08T02:17:31;29.57;;;14.50;;
505;SDS011;551;48.524;9.056;2024-03-08T02:19:58;31.07;;;18.20;;
505;SDS011;551;48.524;9.056;2024-03-08T02:22:30;32.77;;;15.83;;
505;SDS011;551;48.524;9.056;2024-03-08T02:24:56;34.60;;;16.00;;
505;SDS011;551;48.524;9.056;2024-03-08T02:27:24;30.00;;;15.13;;
505;SDS011;551;48.524;9.056;2024-03-08T02:29:54;32.50;;;16.23;;
505;SDS011;551;48.524;9.056;2024-03-08T02:32:21;28.83;;;15.47;;
505;SDS011;551;48.524;9.056;2024-03-08T02:34:47;32.10;;;17.50;;
505;SDS011;551;48.524;9.056;2024-03-08T02:37:13;30.17;;;16.70;;
505;SDS011;551;48.524;9.056;2024-03-08T02:39:38;27.07;;;14.63;;
505;SDS011;551;48.524;9.056;2024-03-08T02:42:04;31.70;;;16.20;;
505;SDS011;551;48.524;9.056;2024-03-08T02:44:29;31.63;;;14.87;;
505;SDS011;551;48.524;9.056;2024-03-08T02:46:55;29.97;;;16.40;;
505;SDS011;551;48.524;9.056;2024-03-08T02:49:20;28.77;;;16.20;;
505;SDS011;551;48.524;9.056;2024-03-08T02:51:46;29.03;;;15.40;;
505;SDS011;551;48.524;9.056;2024-03-08T02:54:12;28.20;;;15.80;;
505;SDS011;551;48.524;9.056;2024-03-08T02:56:37;30.77;;;15.43;;
505;SDS011;551;48.524;9.056;2024-03-08T02:59:03;29.83;;;16.43;;
505;SDS011;551;48.524;9.056;2024-03-08T03:01:28;31.53;;;16.20;;
505;SDS011;551;48.524;9.056;2024-03-08T03:03:54;30.13;;;16.03;;
505;SDS011;551;48.524;9.056;2024-03-08T03:06:19;24.10;;;13.97;;
505;SDS011;551;48.524;9.056;2024-03-08T03:08:46;33.23;;;16.30;;
505;SDS011;551;48.524;9.056;2024-03-08T03:11:12;28.63;;;15.40;;
505;SDS011;551;48.524;9.056;2024-03-08T03:13:39;28.87;;;14.50;;
505;SDS011;551;48.524;9.056;2024-03-08T03:16:04;27.63;;;15.50;;
505;SDS011;551;48.524;9.056;2024-03-08T03:18:30;26.93;;;14.83;;
505;SDS011;551;48.524;9.056;2024-03-08T03:20:57;28.27;;;16.20;;
505;SDS011;551;48.524;9.056;2024-03-08T03:23:23;26.73;;;14.70;;
505;SDS011;551;48.524;9.056;2024-03-08T03:25:51;25.47;;;15.50;;
505;SDS011;551;48.524;9.056;2024-03-08T03:28:17;30.67;;;16.70;;
505;SDS011;551;48.524;9.056;2024-03-08T03:30:44;32.10;;;15.73;;
505;SDS011;551;48.524;9.056;2024-03-08T03:33:11;26.70;;;15.77;;
505;SDS011;551;48.524;9.056;2024-03-08T03:35:39;34.13;;;16.30;;
505;SDS011;551;48.524;9.056;2024-03-08T03:38:06;30.67;;;16.50;;
505;SDS011;551;48.524;9.056;2024-03-08T03:40:35;30.07;;;15.70;;
505;SDS011;551;48.524;9.056;2024-03-08T03:43:02;32.20;;;16.47;;
505;SDS011;551;48.524;9.056;2024-03-08T03:45:28;29.17;;;16.50;;
505;SDS011;551;48.524;9.056;2024-03-08T03:47:54;28.20;;;15.13;;
505;SDS011;551;48.524;9.056;2024-03-08T03:50:19;37.00;;;17.03;;
505;SDS011;551;48.524;9.056;2024-03-08T03:52:48;31.93;;;15.57;;
505;SDS011;551;48.524;9.056;2024-03-08T03:55:14;23.73;;;13.77;;
505;SDS011;551;48.524;9.056;2024-03-08T03:57:40;28.50;;;16.10;;
505;SDS011;551;48.524;9.056;2024-03-08T04:00:07;26.93;;;15.30;;
505;SDS011;551;48.524;9.056;2024-03-08T04:02:39;36.03;;;16.53;;
505;SDS011;551;48.524;9.056;2024-03-08T04:05:06;30.70;;;14.40;;
505;SDS011;551;48.524;9.056;2024-03-08T04:07:32;24.67;;;15.07;;
505;SDS011;551;48.524;9.056;2024-03-08T04:09:59;33.33;;;17.00;;
505;SDS011;551;48.524;9.056;2024-03-08T04:12:25;37.77;;;15.63;;
505;SDS011;551;48.524;9.056;2024-03-08T04:14:50;34.70;;;16.70;;
505;SDS011;551;48.524;9.056;2024-03-08T04:17:16;35.50;;;17.50;;
505;SDS011;551;48.524;9.056;2024-03-08T04:19:43;29.97;;;15.47;;
505;SDS011;551;48.524;9.056;2024-03-08T04:22:08;32.10;;;15.63;;
505;SDS011;551;48.524;9.056;2024-03-08T04:24:34;29.23;;;16.27;;
505;SDS011;551;48.524;9.056;2024-03-08T04:27:00;30.33;;;16.43;;
505;SDS011;551;48.524;9.056;2024-03-08T04:29:25;33.00;;;16.30;;
505;SDS011;551;48.524;9.056;2024-03-08T04:31:52;34.37;;;15.90;;
505;SDS011;551;48.524;9.056;2024-03-08T04:34:19;34.13;;;16.83;;
505;SDS011;551;48.524;9.056;2024-03-08T04:36:45;29.30;;;14.90;;
505;SDS011;551;48.524;9.056;2024-03-08T04:39:11;32.03;;;16.23;;
505;SDS011;551;48.524;9.056;2024-03-08T04:41:38;36.10;;;16.30;;
505;SDS011;551;48.524;9.056;2024-03-08T04:44:04;31.17;;;15.97;;
505;SDS011;551;48.524;9.056;2024-03-08T04:46:29;28.43;;;16.10;;
505;SDS011;551;48.524;9.056;2024-03-08T04:48:55;33.13;;;16.33;;
505;SDS011;551;48.524;9.056;2024-03-08T04:51:20;30.83;;;16.63;;
505;SDS011;551;48.524;9.056;2024-03-08T04:53:46;29.33;;;14.33;;
505;SDS011;551;48.524;9.056;2024-03-08T04:56:11;31.80;;;14.20;;
505;SDS011;551;48.524;9.056;2024-03-08T04:58:37;32.40;;;16.57;;
505;SDS011;551;48.524;9.056;2024-03-08T05:01:03;34.00;;;16.97;;
505;SDS011;551;48.524;9.056;2024-03-08T05:03:28;30.13;;;15.13;;
505;SDS011;551;48.524;9.056;2024-03-08T05:05:55;30.00;;;14.60;;
505;SDS011;551;48.524;9.056;2024-03-08T05:08:21;27.80;;;13.80;;
505;SDS011;551;48.524;9.056;2024-03-08T05:10:46;34.10;;;17.10;;
505;SDS011;551;48.524;9.056;2024-03-08T05:13:12;24.73;;;13.80;;
505;SDS011;551;48.524;9.056;2024-03-08T05:15:41;27.50;;;15.33;;
505;SDS011;551;48.524;9.056;2024-03-08T05:18:07;27.43;;;15.17;;
505;SDS011;551;48.524;9.056;2024-03-08T05:20:33;27.93;;;16.17;;
505;SDS011;551;48.524;9.056;2024-03-08T05:22:58;32.97;;;15.40;;
505;SDS011;551;48.524;9.056;2024-03-08T05:25:25;29.20;;;15.97;;
505;SDS011;551;48.524;9.056;2024-03-08T05:27:51;27.80;;;15.73;;
505;SDS011;551;48.524;9.056;2024-03-08T05:30:17;26.50;;;15.07;;
505;SDS011;551;48.524;9.056;2024-03-08T05:32:42;24.83;;;15.30;;
505;SDS011;551;48.524;9.056;2024-03-08T05:35:11;31.30;;;14.90;;
505;SDS011;551;48.524;9.056;2024-03-08T05:37:37;28.27;;;15.90;;
505;SDS011;551;48.524;9.056;2024-03-08T05:40:04;28.57;;;14.60;;
505;SDS011;551;48.524;9.056;2024-03-08T05:42:34;24.50;;;14.40;;
505;SDS011;551;48.524;9.056;2024-03-08T05:45:00;25.83;;;13.73;;
505;SDS011;551;48.524;9.056;2024-03-08T05:47:25;27.03;;;15.23;;
505;SDS011;551;48.524;9.056;2024-03-08T05:49:51;29.63;;;14.70;;
505;SDS011;551;48.524;9.056;2024-03-08T05:52:18;29.90;;;15.07;;
505;SDS011;551;48.524;9.056;2024-03-08T05:54:44;33.13;;;15.27;;
505;SDS011;551;48.524;9.056;2024-03-08T05:57:10;28.70;;;15.23;;
505;SDS011;551;48.524;9.056;2024-03-08T05:59:36;33.83;;;15.43;;
505;SDS011;551;48.524;9.056;2024-03-08T06:02:02;28.40;;;15.33;;
505;SDS011;551;48.524;9.056;2024-03-08T06:04:28;28.27;;;15.60;;
505;SDS011;551;48.524;9.056;2024-03-08T06:06:54;28.17;;;14.30;;
505;SDS011;551;48.524;9.056;2024-03-08T06:09:22;27.77;;;15.53;;
505;SDS011;551;48.524;9.056;2024-03-08T06:11:48;26.70;;;15.20;;
505;SDS011;551;48.524;9.056;2024-03-08T06:14:14;25.17;;;14.03;;
505;SDS011;551;48.524;9.056;2024-03-08T06:16:43;25.93;;;14.63;;
505;SDS011;551;48.524;9.056;2024-03-08T06:19:12;32.60;;;15.57;;
505;SDS011;551;48.524;9.056;2024-03-08T06:21:38;24.73;;;13.53;;
505;SDS011;551;48.524;9.056;2024-03-08T06:24:04;27.93;;;15.43;;
505;SDS011;551;48.524;9.056;2024-03-08T06:26:30;23.97;;;13.60;;
505;SDS011;551;48.524;9.056;2024-03-08T06:28:56;26.13;;;14.43;;
505;SDS011;551;48.524;9.056;2024-03-08T06:31:22;22.50;;;13.80;;
505;SDS011;551;48.524;9.056;2024-03-08T06:33:47;24.93;;;14.10;;
505;SDS011;551;48.524;9.056;2024-03-08T06:36:17;28.70;;;15.07;;
505;SDS011;551;48.524;9.056;2024-03-08T06:38:49;33.27;;;15.60;;
505;SDS011;551;48.524;9.056;2024-03-08T06:41:15;24.17;;;14.33;;
505;SDS011;551;48.524;9.056;2024-03-08T06:43:44;25.53;;;15.93;;
505;SDS011;551;48.524;9.056;2024-03-08T06:46:10;26.80;;;15.13;;
505;SDS011;551;48.524;9.056;2024-03-08T06:48:39;27.17;;;14.10;;
505;SDS011;551;48.524;9.056;2024-03-08T06:51:05;28.43;;;14.73;;
505;SDS011;551;48.524;9.056;2024-03-08T06:53:31;22.70;;;13.53;;
505;SDS011;551;48.524;9.056;2024-03-08T06:55:56;26.67;;;14.10;;
505;SDS011;551;48.524;9.056;2024-03-08T06:58:22;25.50;;;14.40;;
505;SDS011;551;48.524;9.056;2024-03-08T07:00:48;30.03;;;14.80;;
505;SDS011;551;48.524;9.056;2024-03-08T07:03:17;25.13;;;14.60;;
505;SDS011;551;48.524;9.056;2024-03-08T07:05:42;23.30;;;15.70;;
505;SDS011;551;48.524;9.056;2024-03-08T07:08:08;35.40;;;15.07;;
505;SDS011;551;48.524;9.056;2024-03-08T07:10:34;27.53;;;14.67;;
505;SDS011;551;48.524;9.056;2024-03-08T07:13:00;34.70;;;15.53;;
505;SDS011;551;48.524;9.056;2024-03-08T07:15:27;31.03;;;13.83;;
505;SDS011;551;48.524;9.056;2024-03-08T07:17:53;27.47;;;14.03;;
505;SDS011;551;48.524;9.056;2024-03-08T07:20:19;28.23;;;15.30;;
505;SDS011;551;48.524;9.056;2024-03-08T07:22:47;24.80;;;14.77;;
505;SDS011;551;48.524;9.056;2024-03-08T07:25:15;26.30;;;15.50;;
505;SDS011;551;48.524;9.056;2024-03-08T07:27:47;26.27;;;15.60;;
505;SDS011;551;48.524;9.056;2024-03-08T07:30:13;22.80;;;15.17;;
505;SDS011;551;48.524;9.056;2024-03-08T07:32:58;23.67;;;13.70;;
505;SDS011;551;48.524;9.056;2024-03-08T07:35:24;27.33;;;15.10;;
505;SDS011;551;48.524;9.056;2024-03-08T07:37:51;30.43;;;15.63;;
505;SDS011;551;48.524;9.056;2024-03-08T07:40:18;30.73;;;14.90;;
505;SDS011;551;48.524;9.056;2024-03-08T07:42:43;33.93;;;15.50;;
505;SDS011;551;48.524;9.056;2024-03-08T07:45:09;30.40;;;16.70;;
505;SDS011;551;48.524;9.056;2024-03-08T07:47:34;28.17;;;15.27;;
505;SDS011;551;48.524;9.056;2024-03-08T07:50:01;28.17;;;14.90;;
505;SDS011;551;48.524;9.056;2024-03-08T07:52:27;30.10;;;15.47;;
505;SDS011;551;48.524;9.056;2024-03-08T07:54:52;23.73;;;14.70;;
505;SDS011;551;48.524;9.056;2024-03-08T07:57:19;23.93;;;14.73;;
505;SDS011;551;48.524;9.056;2024-03-08T07:59:45;26.60;;;15.13;;
505;SDS011;551;48.524;9.056;2024-03-08T08:02:10;25.60;;;15.90;;
505;SDS011;551;48.524;9.056;2024-03-08T08:04:36;31.30;;;14.77;;
505;SDS011;551;48.524;9.056;2024-03-08T08:07:02;26.43;;;14.07;;
505;SDS011;551;48.524;9.056;2024-03-08T08:09:27;24.90;;;14.03;;
505;SDS011;551;48.524;9.056;2024-03-08T08:11:56;24.47;;;16.00;;
505;SDS011;551;48.524;9.056;2024-03-08T08:14:22;23.83;;;15.00;;
505;SDS011;551;48.524;9.056;2024-03-08T08:16:47;23.40;;;13.93;;
505;SDS011;551;48.524;9.056;2024-03-08T08:19:15;24.30;;;13.53;;
505;SDS011;551;48.524;9.056;2024-03-08T08:21:41;26.10;;;14.43;;
505;SDS011;551;48.524;9.056;2024-03-08T08:24:06;21.23;;;13.53;;
505;SDS011;551;48.524;9.056;2024-03-08T08:26:32;20.30;;;13.37;;
505;SDS011;551;48.524;9.056;2024-03-08T08:28:59;24.00;;;15.50;;
505;SDS011;551;48.524;9.056;2024-03-08T08:31:25;25.73;;;13.47;;
505;SDS011;551;48.524;9.056;2024-03-08T08:33:51;24.47;;;14.03;;
505;SDS011;551;48.524;9.056;2024-03-08T08:36:23;27.87;;;14.27;;
505;SDS011;551;48.524;9.056;2024-03-08T08:38:51;22.63;;;14.53;;
505;SDS011;551;48.524;9.056;2024-03-08T08:41:21;24.83;;;13.97;;
505;SDS011;551;48.524;9.056;2024-03-08T08:43:47;24.53;;;13.17;;
505;SDS011;551;48.524;9.056;2024-03-08T08:46:16;24.97;;;13.97;;
505;SDS011;551;48.524;9.056;2024-03-08T08:48:42;22.73;;;13.70;;
505;SDS011;551;48.524;9.056;2024-03-08T08:51:09;22.53;;;13.30;;
505;SDS011;551;48.524;9.056;2024-03-08T08:53:38;22.93;;;13.20;;
505;SDS011;551;48.524;9.056;2024-03-08T08:56:07;26.60;;;13.80;;
505;SDS011;551;48.524;9.056;2024-03-08T08:58:38;19.60;;;12.80;;
505;SDS011;551;48.524;9.056;2024-03-08T09:01:04;19.93;;;13.10;;
505;SDS011;551;48.524;9.056;2024-03-08T09:03:30;24.97;;;14.30;;
505;SDS011;551;48.524;9.056;2024-03-08T09:05:55;22.80;;;12.47;;
505;SDS011;551;48.524;9.056;2024-03-08T09:08:21;23.90;;;13.43;;
505;SDS011;551;48.524;9.056;2024-03-08T09:10:48;28.03;;;13.33;;
505;SDS011;551;48.524;9.056;2024-03-08T09:13:13;21.30;;;12.37;;
505;SDS011;551;48.524;9.056;2024-03-08T09:15:39;23.40;;;13.90;;
505;SDS011;551;48.524;9.056;2024-03-08T09:18:05;21.17;;;12.87;;
505;SDS011;551;48.524;9.056;2024-03-08T09:20:31;24.20;;;12.47;;
505;SDS011;551;48.524;9.056;2024-03-08T09:22:57;25.87;;;13.83;;
505;SDS011;551;48.524;9.056;2024-03-08T09:25:22;22.10;;;13.90;;
505;SDS011;551;48.524;9.056;2024-03-08T09:27:48;20.40;;;12.37;;
505;SDS011;551;48.524;9.056;2024-03-08T09:30:14;20.73;;;11.90;;
505;SDS011;551;48.524;9.056;2024-03-08T09:32:40;20.20;;;13.10;;
505;SDS011;551;48.524;9.056;2024-03-08T09:35:06;22.57;;;12.70;;
505;SDS011;551;48.524;9.056;2024-03-08T09:37:32;22.10;;;12.80;;
505;SDS011;551;48.524;9.056;2024-03-08T09:40:01;22.50;;;13.30;;
505;SDS011;551;48.524;9.056;2024-03-08T09:42:29;19.00;;;12.77;;
505;SDS011;551;48.524;9.056;2024-03-08T09:44:56;19.87;;;12.73;;
505;SDS011;551;48.524;9.056;2024-03-08T09:47:22;18.87;;;12.60;;
505;SDS011;551;48.524;9.056;2024-03-08T09:49:54;26.77;;;13.47;;
505;SDS011;551;48.524;9.056;2024-03-08T09:52:19;21.57;;;14.10;;
505;SDS011;551;48.524;9.056;2024-03-08T09:54:45;23.20;;;13.50;;
505;SDS011;551;48.524;9.056;2024-03-08T09:57:11;23.53;;;14.17;;
505;SDS011;551;48.524;9.056;2024-03-08T09:59:37;22.90;;;13.00;;
505;SDS011;551;48.524;9.056;2024-03-08T10:02:02;27.90;;;13.97;;
505;SDS011;551;48.524;9.056;2024-03-08T10:04:29;18.77;;;12.57;;
505;SDS011;551;48.524;9.056;2024-03-08T10:06:57;23.37;;;15.10;;
505;SDS011;551;48.524;9.056;2024-03-08T10:09:24;17.63;;;11.60;;
505;SDS011;551;48.524;9.056;2024-03-08T10:11:53;19.10;;;12.30;;
505;SDS011;551;48.524;9.056;2024-03-08T10:14:24;18.77;;;13.07;;
505;SDS011;551;48.524;9.056;2024-03-08T10:16:53;19.00;;;12.63;;
505;SDS011;551;48.524;9.056;2024-03-08T10:19:19;21.43;;;12.93;;
505;SDS011;551;48.524;9.056;2024-03-08T10:21:48;16.07;;;10.50;;
505;SDS011;551;48.524;9.056;2024-03-08T10:24:14;21.77;;;12.80;;
505;SDS011;551;48.524;9.056;2024-03-08T10:26:40;19.80;;;12.47;;
505;SDS011;551;48.524;9.056;2024-03-08T10:29:08;21.30;;;12.90;;
505;SDS011;551;48.524;9.056;2024-03-08T10:31:34;16.63;;;10.07;;
505;SDS011;551;48.524;9.056;2024-03-08T10:33:59;20.03;;;11.47;;
505;SDS011;551;48.524;9.056;2024-03-08T10:36:26;15.90;;;11.20;;
505;SDS011;551;48.524;9.056;2024-03-08T10:38:52;22.40;;;12.37;;
505;SDS011;551;48.524;9.056;2024-03-08T10:41:18;17.47;;;10.50;;
505;SDS011;551;48.524;9.056;2024-03-08T10:43:55;16.77;;;10.93;;
505;SDS011;551;48.524;9.056;2024-03-08T10:46:57;20.67;;;12.10;;
505;SDS011;551;48.524;9.056;2024-03-08T10:49:19;16.50;;;11.37;;
505;SDS011;551;48.524;9.056;2024-03-08T10:51:55;16.37;;;11.07;;
505;SDS011;551;48.524;9.056;2024-03-08T10:54:22;22.23;;;12.40;;
505;SDS011;551;48.524;9.056;2024-03-08T10:56:50;18.07;;;11.10;;
505;SDS011;551;48.524;9.056;2024-03-08T10:59:16;19.73;;;12.80;;
505;SDS011;551;48.524;9.056;2024-03-08T11:01:42;16.53;;;10.90;;
505;SDS011;551;48.524;9.056;2024-03-08T11:04:08;15.20;;;11.03;;
505;SDS011;551;48.524;9.056;2024-03-08T11:09:03;15.20;;;11.37;;
505;SDS011;551;48.524;9.056;2024-03-08T11:11:47;17.70;;;10.40;;
505;SDS011;551;48.524;9.056;2024-03-08T11:17:12;17.23;;;12.23;;
505;SDS011;551;48.524;9.056;2024-03-08T11:19:38;15.73;;;11.90;;
505;SDS011;551;48.524;9.056;2024-03-08T11:22:20;19.90;;;11.80;;
505;SDS011;551;48.524;9.056;2024-03-08T11:24:48;18.67;;;12.20;;
505;SDS011;551;48.524;9.056;2024-03-08T11:27:14;14.83;;;10.20;;
505;SDS011;551;48.524;9.056;2024-03-08T11:29:40;15.23;;;11.70;;
505;SDS011;551;48.524;9.056;2024-03-08T11:32:12;17.23;;;12.10;;
505;SDS011;551;48.524;9.056;2024-03-08T11:34:43;15.07;;;11.60;;
505;SDS011;551;48.524;9.056;2024-03-08T11:37:11;15.17;;;10.87;;
505;SDS011;551;48.524;9.056;2024-03-08T11:39:51;18.63;;;12.53;;
505;SDS011;551;48.524;9.056;2024-03-08T11:42:19;16.90;;;12.73;;
505;SDS011;551;48.524;9.056;2024-03-08T11:44:45;19.40;;;12.77;;
505;SDS011;551;48.524;9.056;2024-03-08T11:47:12;15.93;;;11.70;;
505;SDS011;551;48.524;9.056;2024-03-08T11:49:39;14.37;;;12.00;;
505;SDS011;551;48.524;9.056;2024-03-08T11:52:10;17.93;;;12.40;;
505;SDS011;551;48.524;9.056;2024-03-08T11:54:38;15.20;;;11.83;;
505;SDS011;551;48.524;9.056;2024-03-08T11:57:04;16.70;;;12.73;;
505;SDS011;551;48.524;9.056;2024-03-08T11:59:29;16.23;;;12.27;;
505;SDS011;551;48.524;9.056;2024-03-08T12:01:59;18.70;;;11.83;;
505;SDS011;551;48.524;9.056;2024-03-08T12:04:26;16.77;;;12.07;;
505;SDS011;551;48.524;9.056;2024-03-08T12:06:52;14.37;;;11.20;;
505;SDS011;551;48.524;9.056;2024-03-08T12:09:18;18.50;;;13.37;;
505;SDS011;551;48.524;9.056;2024-03-08T12:11:44;18.27;;;13.33;;
505;SDS011;551;48.524;9.056;2024-03-08T12:14:16;21.23;;;12.67;;
505;SDS011;551;48.524;9.056;2024-03-08T12:16:42;15.20;;;12.63;;
505;SDS011;551;48.524;9.056;2024-03-08T12:19:07;17.23;;;13.23;;
505;SDS011;551;48.524;9.056;2024-03-08T12:21:35;15.83;;;13.00;;
505;SDS011;551;48.524;9.056;2024-03-08T12:24:02;19.53;;;12.93;;
505;SDS011;551;48.524;9.056;2024-03-08T12:26:38;18.90;;;14.03;;
505;SDS011;551;48.524;9.056;2024-03-08T12:29:18;19.63;;;13.40;;
505;SDS011;551;48.524;9.056;2024-03-08T12:32:21;15.53;;;12.40;;
505;SDS011;551;48.524;9.056;2024-03-08T12:34:40;15.73;;;12.70;;
505;SDS011;551;48.524;9.056;2024-03-08T12:37:06;16.33;;;12.80;;
505;SDS011;551;48.524;9.056;2024-03-08T12:39:32;16.90;;;12.80;;
505;SDS011;551;48.524;9.056;2024-03-08T12:41:58;21.77;;;14.70;;
505;SDS011;551;48.524;9.056;2024-03-08T12:44:24;16.57;;;13.50;;
505;SDS011;551;48.524;9.056;2024-03-08T12:46:50;17.57;;;13.83;;
505;SDS011;551;48.524;9.056;2024-03-08T12:49:16;16.27;;;13.23;;
505;SDS011;551;48.524;9.056;2024-03-08T12:51:43;19.90;;;14.43;;
505;SDS011;551;48.524;9.056;2024-03-08T12:54:10;16.60;;;13.70;;
505;SDS011;551;48.524;9.056;2024-03-08T12:56:35;16.57;;;13.27;;
505;SDS011;551;48.524;9.056;2024-03-08T12:59:02;15.60;;;13.93;;
505;SDS011;551;48.524;9.056;2024-03-08T13:01:29;16.10;;;12.27;;
505;SDS011;551;48.524;9.056;2024-03-08T13:03:57;20.37;;;13.93;;
505;SDS011;551;48.524;9.056;2024-03-08T13:06:27;17.93;;;14.00;;
505;SDS011;551;48.524;9.056;2024-03-08T13:08:53;16.70;;;13.63;;
505;SDS011;551;48.524;9.056;2024-03-08T13:11:20;21.43;;;13.70;;
505;SDS011;551;48.524;9.056;2024-03-08T13:13:48;18.50;;;13.30;;
505;SDS011;551;48.524;9.056;2024-03-08T13:16:14;17.83;;;13.20;;
505;SDS011;551;48.524;9.056;2024-03-08T13:18:40;17.80;;;13.27;;
505;SDS011;551;48.524;9.056;2024-03-08T13:21:12;17.63;;;13.50;;
505;SDS011;551;48.524;9.056;2024-03-08T13:23:39;21.57;;;14.40;;
505;SDS011;551;48.524;9.056;2024-03-08T13:26:10;21.20;;;14.50;;
505;SDS011;551;48.524;9.056;2024-03-08T13:28:40;18.50;;;13.57;;
505;SDS011;551;48.524;9.056;2024-03-08T13:31:06;18.40;;;14.10;;
505;SDS011;551;48.524;9.056;2024-03-08T13:33:32;16.50;;;13.20;;
505;SDS011;551;48.524;9.056;2024-03-08T13:36:05;18.80;;;14.00;;
505;SDS011;551;48.524;9.056;2024-03-08T13:38:32;17.27;;;13.70;;
505;SDS011;551;48.524;9.056;2024-03-08T13:41:00;18.97;;;15.10;;
505;SDS011;551;48.524;9.056;2024-03-08T13:43:25;16.60;;;13.50;;
505;SDS011;551;48.524;9.056;2024-03-08T13:45:53;18.47;;;12.40;;
505;SDS011;551;48.524;9.056;2024-03-08T13:48:19;16.87;;;14.13;;
505;SDS011;551;48.524;9.056;2024-03-08T13:50:47;15.97;;;13.17;;
505;SDS011;551;48.524;9.056;2024-03-08T13:53:13;19.37;;;13.47;;
505;SDS011;551;48.524;9.056;2024-03-08T13:55:40;24.50;;;14.40;;
505;SDS011;551;48.524;9.056;2024-03-08T13:58:05;17.53;;;13.03;;
505;SDS011;551;48.524;9.056;2024-03-08T14:00:34;17.40;;;13.20;;
505;SDS011;551;48.524;9.056;2024-03-08T14:03:01;18.40;;;13.00;;
505;SDS011;551;48.524;9.056;2024-03-08T14:05:30;17.80;;;13.47;;
505;SDS011;551;48.524;9.056;2024-03-08T14:07:59;18.77;;;12.10;;
505;SDS011;551;48.524;9.056;2024-03-08T14:10:28;17.17;;;12.83;;
505;SDS011;551;48.524;9.056;2024-03-08T14:12:56;23.90;;;13.30;;
505;SDS011;551;48.524;9.056;2024-03-08T14:15:25;20.93;;;13.90;;
505;SDS011;551;48.524;9.056;2024-03-08T14:17:55;16.40;;;12.47;;
505;SDS011;551;48.524;9.056;2024-03-08T14:20:22;18.60;;;13.20;;
505;SDS011;551;48.524;9.056;2024-03-08T14:22:50;18.07;;;12.50;;
505;SDS011;551;48.524;9.056;2024-03-08T14:25:17;22.07;;;13.20;;
505;SDS011;551;48.524;9.056;2024-03-08T14:27:43;19.50;;;13.30;;
505;SDS011;551;48.524;9.056;2024-03-08T14:30:10;18.90;;;13.13;;
505;SDS011;551;48.524;9.056;2024-03-08T14:32:36;17.47;;;12.27;;
505;SDS011;551;48.524;9.056;2024-03-08T14:35:05;23.30;;;13.23;;
505;SDS011;551;48.524;9.056;2024-03-08T14:37:30;16.70;;;12.10;;
505;SDS011;551;48.524;9.056;2024-03-08T14:39:56;17.53;;;11.57;;
505;SDS011;551;48.524;9.056;2024-03-08T14:42:22;19.30;;;11.20;;
505;SDS011;551;48.524;9.056;2024-03-08T14:44:50;21.60;;;11.80;;
505;SDS011;551;48.524;9.056;2024-03-08T14:47:17;21.63;;;12.47;;
505;SDS011;551;48.524;9.056;2024-03-08T14:49:43;14.63;;;11.13;;
505;SDS011;551;48.524;9.056;2024-03-08T14:52:08;13.20;;;10.80;;
505;SDS011;551;48.524;9.056;2024-03-08T14:54:52;26.10;;;14.30;;
505;SDS011;551;48.524;9.056;2024-03-08T14:57:18;25.80;;;13.30;;
505;SDS011;551;48.524;9.056;2024-03-08T14:59:44;19.73;;;13.00;;
505;SDS011;551;48.524;9.056;2024-03-08T15:02:09;21.93;;;12.30;;
505;SDS011;551;48.524;9.056;2024-03-08T15:04:35;19.77;;;13.70;;
505;SDS011;551;48.524;9.056;2024-03-08T15:07:01;18.87;;;12.00;;
505;SDS011;551;48.524;9.056;2024-03-08T15:09:27;18.33;;;12.80;;
505;SDS011;551;48.524;9.056;2024-03-08T15:11:53;22.67;;;13.60;;
505;SDS011;551;48.524;9.056;2024-03-08T15:14:19;16.07;;;11.93;;
505;SDS011;551;48.524;9.056;2024-03-08T15:16:45;21.33;;;12.37;;
505;SDS011;551;48.524;9.056;2024-03-08T15:19:12;18.73;;;13.40;;